createdAt,value
2022-10-29T00:02:46.050Z,32.55
2022-10-29T00:07:49.913Z,31.53
2022-10-29T00:12:53.670Z,31.15
2022-10-29T00:17:58.972Z,30.52
2022-10-29T00:23:02.896Z,30.97
2022-10-29T00:28:06.726Z,30.67
2022-10-29T00:33:13.110Z,28.90
2022-10-29T00:38:16.954Z,30.73
2022-10-29T00:43:22.685Z,29.58
2022-10-29T00:48:29.631Z,29.52
2022-10-29T00:53:37.375Z,30.20
2022-10-29T00:58:41.610Z,30.42
2022-10-29T01:03:47.309Z,31.50
2022-10-29T01:08:51.057Z,31.83
2022-10-29T01:14:04.286Z,29.75
2022-10-29T01:19:15.419Z,30.20
2022-10-29T01:24:58.417Z,30.20
2022-10-29T01:30:07.293Z,31.73
2022-10-29T01:35:18.021Z,32.03
2022-10-29T01:40:25.660Z,31.95
2022-10-29T01:45:34.393Z,30.70
2022-10-29T01:50:41.662Z,30.95
2022-10-29T01:55:45.448Z,29.95
2022-10-29T02:00:53.805Z,29.63
2022-10-29T02:06:02.448Z,30.25
2022-10-29T02:11:10.965Z,29.55
2022-10-29T02:16:15.446Z,31.75
2022-10-29T02:21:21.473Z,28.38
2022-10-29T02:26:25.258Z,28.90
2022-10-29T02:31:29.021Z,26.80
2022-10-29T02:36:34.239Z,30.02
2022-10-29T02:41:38.036Z,28.35
2022-10-29T02:46:42.058Z,32.35
2022-10-29T02:51:47.240Z,30.77
2022-10-29T02:56:51.028Z,26.48
2022-10-29T03:01:54.840Z,30.27
2022-10-29T03:07:00.809Z,27.38
2022-10-29T03:12:04.840Z,27.98
2022-10-29T03:17:08.597Z,27.48
2022-10-29T03:22:13.750Z,27.75
2022-10-29T03:27:17.506Z,27.58
2022-10-29T03:32:21.261Z,27.38
2022-10-29T03:37:26.418Z,27.70
2022-10-29T03:42:31.278Z,28.08
2022-10-29T03:47:35.271Z,26.30
2022-10-29T03:52:40.423Z,24.23
2022-10-29T03:57:44.217Z,23.55
2022-10-29T04:02:48.045Z,21.40
2022-10-29T04:07:53.259Z,20.50
2022-10-29T04:12:57.329Z,20.85
2022-10-29T04:18:01.524Z,23.25
2022-10-29T04:28:43.075Z,22.63
2022-10-29T04:33:47.380Z,22.73
2022-10-29T04:38:52.851Z,22.67
2022-10-29T04:43:56.629Z,18.07
2022-10-29T04:49:00.617Z,20.88
2022-10-29T04:54:06.078Z,21.63
2022-10-29T04:59:09.853Z,24.97
2022-10-29T05:04:13.612Z,28.15
2022-10-29T05:09:18.761Z,27.85
2022-10-29T05:14:22.525Z,25.38
2022-10-29T05:19:26.279Z,25.00
2022-10-29T05:24:31.480Z,20.83
2022-10-29T05:29:35.280Z,30.63
2022-10-29T05:34:41.994Z,22.50
2022-10-29T05:39:49.457Z,21.90
2022-10-29T05:44:53.218Z,22.35
2022-10-29T05:49:56.977Z,28.45
2022-10-29T05:55:02.145Z,19.58
2022-10-29T06:00:06.956Z,27.58
2022-10-29T06:05:15.910Z,19.83
2022-10-29T06:10:21.066Z,19.27
2022-10-29T06:15:25.049Z,20.73
2022-10-29T06:20:28.821Z,22.63
2022-10-29T06:25:34.251Z,20.75
2022-10-29T06:30:38.065Z,21.37
2022-10-29T06:35:41.873Z,20.90
2022-10-29T06:40:52.890Z,22.77
2022-10-29T06:45:56.815Z,21.17
2022-10-29T06:51:01.143Z,20.58
2022-10-29T06:56:06.572Z,21.20
2022-10-29T07:01:10.551Z,22.20
2022-10-29T07:06:14.484Z,21.05
2022-10-29T07:11:19.655Z,21.48
2022-10-29T07:16:23.422Z,21.25
2022-10-29T07:21:27.194Z,19.45
2022-10-29T07:26:32.370Z,20.92
2022-10-29T07:31:36.206Z,21.67
2022-10-29T07:36:39.972Z,18.75
2022-10-29T07:41:45.128Z,20.25
2022-10-29T07:46:48.907Z,20.27
2022-10-29T07:51:52.682Z,17.70
2022-10-29T07:56:57.848Z,18.15
2022-10-29T08:02:01.727Z,16.13
2022-10-29T08:07:05.574Z,16.80
2022-10-29T08:12:11.391Z,15.60
2022-10-29T08:17:15.213Z,15.77
2022-10-29T08:22:18.981Z,17.98
2022-10-29T08:27:24.293Z,19.20
2022-10-29T08:32:28.123Z,18.92
2022-10-29T08:37:31.910Z,20.95
2022-10-29T08:42:47.702Z,23.88
2022-10-29T08:48:12.818Z,19.08
2022-10-29T08:53:23.156Z,20.25
2022-10-29T08:58:35.509Z,21.77
2022-10-29T09:03:39.386Z,20.35
2022-10-29T09:08:55.943Z,18.30
2022-10-29T09:14:09.089Z,20.70
2022-10-29T09:19:34.478Z,20.38
2022-10-29T09:24:41.705Z,18.47
2022-10-29T09:30:09.882Z,17.33
2022-10-29T09:35:15.662Z,13.57
2022-10-29T09:40:31.402Z,9.27
2022-10-29T09:50:54.040Z,12.13
2022-10-29T09:55:57.830Z,12.10
2022-10-29T10:01:03.051Z,11.30
2022-10-29T10:06:08.134Z,9.40
2022-10-29T10:11:20.434Z,10.90
2022-10-29T10:16:27.838Z,11.48
2022-10-29T10:21:33.036Z,12.98
2022-10-29T10:26:39.484Z,13.05
2022-10-29T10:31:45.730Z,12.70
2022-10-29T10:36:52.364Z,12.98
2022-10-29T10:41:57.258Z,13.07
2022-10-29T10:47:07.005Z,12.60
2022-10-29T10:52:17.020Z,11.80
2022-10-29T10:57:22.977Z,11.32
2022-10-29T11:02:33.448Z,10.05
2022-10-29T11:07:38.771Z,7.03
2022-10-29T11:12:45.242Z,6.97
2022-10-29T11:17:54.535Z,7.38
2022-10-29T11:23:07.462Z,6.55
2022-10-29T11:28:21.100Z,6.80
2022-10-29T11:33:35.147Z,6.97
2022-10-29T11:38:41.719Z,4.90
2022-10-29T11:43:45.600Z,4.80
2022-10-29T11:48:56.247Z,5.13
2022-10-29T11:54:02.700Z,4.03
2022-10-29T11:59:09.688Z,4.68
2022-10-29T12:04:25.489Z,5.22
2022-10-29T12:09:41.558Z,5.45
2022-10-29T12:14:50.038Z,5.03
2022-10-29T12:19:59.774Z,5.30
2022-10-29T12:25:16.394Z,7.53
2022-10-29T12:30:20.904Z,4.97
2022-10-29T12:35:31.156Z,4.63
2022-10-29T12:40:36.458Z,5.07
2022-10-29T12:46:18.963Z,4.57
2022-10-29T12:51:17.485Z,5.05
2022-10-29T12:56:21.588Z,6.22
2022-10-29T13:07:24.847Z,5.70
2022-10-29T13:13:01.301Z,6.10
2022-10-29T13:18:10.368Z,5.65
2022-10-29T13:23:37.634Z,5.15
2022-10-29T13:28:53.133Z,6.20
2022-10-29T13:33:57.030Z,7.00
2022-10-29T13:39:21.402Z,7.03
2022-10-29T13:44:26.832Z,5.75
2022-10-29T13:49:32.960Z,6.20
2022-10-29T13:54:40.655Z,7.13
2022-10-29T13:59:47.964Z,6.85
2022-10-29T14:04:55.993Z,10.18
2022-10-29T14:10:04.822Z,8.77
2022-10-29T14:15:11.415Z,6.97
2022-10-29T14:20:24.233Z,8.13
2022-10-29T14:25:32.400Z,7.78
2022-10-29T14:30:36.398Z,7.80
2022-10-29T14:35:40.534Z,8.70
2022-10-29T14:40:46.690Z,9.02
2022-10-29T14:45:50.529Z,9.77
2022-10-29T14:50:56.683Z,7.07
2022-10-29T14:56:04.434Z,7.30
2022-10-29T15:01:10.103Z,8.90
2022-10-29T15:11:38.118Z,8.55
2022-10-29T15:16:42.598Z,10.02
2022-10-29T15:21:46.713Z,10.60
2022-10-29T15:26:54.060Z,15.50
2022-10-29T15:31:58.611Z,9.25
2022-10-29T15:37:16.454Z,8.77
2022-10-29T15:42:23.676Z,9.27
2022-10-29T15:47:30.429Z,11.13
2022-10-29T15:52:35.502Z,12.52
2022-10-29T15:57:40.803Z,11.30
2022-10-29T16:02:44.715Z,19.33
2022-10-29T16:07:49.438Z,12.00
2022-10-29T16:12:55.001Z,17.83
2022-10-29T16:17:59.285Z,53.85
2022-10-29T16:23:05.489Z,16.60
2022-10-29T16:33:14.271Z,16.30
2022-10-29T16:38:18.689Z,16.65
2022-10-29T16:43:23.858Z,16.92
2022-10-29T16:48:27.641Z,16.73
2022-10-29T16:53:31.476Z,18.13
2022-10-29T16:58:36.654Z,18.40
2022-10-29T17:03:40.558Z,14.67
2022-10-29T17:08:44.340Z,15.90
2022-10-29T17:13:49.526Z,17.00
2022-10-29T17:18:53.396Z,17.80
2022-10-29T17:23:57.186Z,19.92
2022-10-29T17:29:02.456Z,17.10
2022-10-29T17:34:06.397Z,20.50
2022-10-29T17:39:10.439Z,20.10
2022-10-29T17:44:15.644Z,21.20
2022-10-29T17:49:19.412Z,20.70
2022-10-29T17:54:23.198Z,21.83
2022-10-29T17:59:28.346Z,22.52
2022-10-29T18:04:32.119Z,23.73
2022-10-29T18:09:35.919Z,24.42
2022-10-29T18:14:41.087Z,24.75
2022-10-29T18:19:44.898Z,24.17
2022-10-29T18:24:48.693Z,23.25
2022-10-29T18:29:54.021Z,24.70
2022-10-29T18:34:57.787Z,24.13
2022-10-29T18:40:01.565Z,24.25
2022-10-29T18:45:07.940Z,25.65
2022-10-29T18:50:11.739Z,23.20
2022-10-29T18:55:15.566Z,24.45
2022-10-29T19:00:20.826Z,24.20
2022-10-29T19:05:24.700Z,23.73
2022-10-29T19:10:28.545Z,22.80
2022-10-29T19:15:35.021Z,22.27
2022-10-29T19:20:38.877Z,23.40
2022-10-29T19:25:42.644Z,22.77
2022-10-29T19:30:47.811Z,21.40
2022-10-29T19:35:51.593Z,21.23
2022-10-29T19:40:57.042Z,18.02
2022-10-29T19:46:02.511Z,19.33
2022-10-29T19:51:06.881Z,18.67
2022-10-29T19:56:12.220Z,23.60
2022-10-29T20:01:18.484Z,21.63
2022-10-29T20:06:22.519Z,19.60
2022-10-29T20:11:26.353Z,18.58
2022-10-29T20:16:31.501Z,18.02
2022-10-29T20:21:35.274Z,16.13
2022-10-29T20:26:39.041Z,16.35
2022-10-29T20:31:44.263Z,16.55
2022-10-29T20:36:48.157Z,16.93
2022-10-29T20:41:52.050Z,17.30
2022-10-29T20:46:57.273Z,16.50
2022-10-29T20:52:01.038Z,16.27
2022-10-29T20:57:04.918Z,14.65
2022-10-29T21:02:10.887Z,15.73
2022-10-29T21:12:18.221Z,14.38
2022-10-29T21:17:23.395Z,14.88
2022-10-29T21:22:27.167Z,14.95
2022-10-29T21:27:30.927Z,13.82
2022-10-29T21:32:36.098Z,13.93
2022-10-29T21:37:39.892Z,14.02
2022-10-29T21:42:43.662Z,13.40
2022-10-29T21:47:49.461Z,14.18
2022-10-29T21:52:53.283Z,13.13
2022-10-29T21:57:57.357Z,14.82
2022-10-29T22:03:04.538Z,15.27
2022-10-29T22:08:08.721Z,13.55
2022-10-29T22:13:14.464Z,15.27
2022-10-29T22:18:19.886Z,14.63
2022-10-29T22:23:23.748Z,12.80
2022-10-29T22:28:27.554Z,13.07
2022-10-29T22:33:33.170Z,12.43
2022-10-29T22:38:37.386Z,12.65
2022-10-29T22:43:41.197Z,13.27
2022-10-29T22:48:47.148Z,12.65
2022-10-29T22:53:51.784Z,12.15
2022-10-29T22:58:55.837Z,13.07
2022-10-29T23:04:01.189Z,11.75
2022-10-29T23:09:05.034Z,12.30
2022-10-29T23:14:08.809Z,13.10
2022-10-29T23:19:13.997Z,12.70
2022-10-29T23:24:17.766Z,10.20
2022-10-29T23:29:21.531Z,12.95
2022-10-29T23:34:26.702Z,12.98
2022-10-29T23:39:30.465Z,13.23
2022-10-29T23:44:34.229Z,14.05
2022-10-29T23:49:39.390Z,14.25
2022-10-29T23:54:43.172Z,12.85
2022-10-29T23:59:46.941Z,13.77
